Time;durP1;ratioP1;P1;durP2;ratioP2;P2;SDS_P1;SDS_P2;PMS_P1;PMS_P2;Temp;Humidity;BMP_temperature;BMP_pressure;BME280_temperature;BME280_humidity;BME280_pressure;Samples;Min_cycle;Max_cycle;Signal;HPM_P1;HPM_P2
2022/08/16 00:00:43;;;;;;;8.83;4.10;;;22.60;99.90;;;;;;5069213;28;20239;-77
2022/08/16 00:03:11;;;;;;;8.87;4.03;;;22.60;99.90;;;;;;5058997;28;20198;-77
2022/08/16 00:05:37;;;;;;;9.63;4.32;;;22.60;99.90;;;;;;5063728;28;20182;-77
2022/08/16 00:08:04;;;;;;;7.80;4.10;;;22.50;99.90;;;;;;5065458;28;20656;-77
2022/08/16 00:10:32;;;;;;;9.02;4.65;;;22.50;99.90;;;;;;5062847;28;20198;-77
2022/08/16 00:13:05;;;;;;;10.05;4.10;;;22.50;99.90;;;;;;5063729;28;20722;-77
2022/08/16 00:15:46;;;;;;;12.10;4.43;;;22.50;99.90;;;;;;5063025;28;20248;-77
2022/08/16 00:18:16;;;;;;;8.45;4.10;;;22.50;99.90;;;;;;5060753;28;20211;-77
2022/08/16 00:20:46;;;;;;;9.10;4.15;;;22.50;99.90;;;;;;5058131;28;20192;-77
2022/08/16 00:23:17;;;;;;;10.43;4.40;;;22.40;99.90;;;;;;5064926;28;20217;-77
2022/08/16 00:25:43;;;;;;;5.10;4.10;;;22.40;99.90;;;;;;5062368;28;20191;-77
2022/08/16 00:28:14;;;;;;;8.60;4.43;;;22.40;99.90;;;;;;5063675;28;20619;-76
2022/08/16 00:30:42;;;;;;;12.82;4.22;;;22.40;99.90;;;;;;5056597;28;20197;-76
2022/08/16 00:33:11;;;;;;;11.73;4.90;;;22.40;99.90;;;;;;5064635;28;20277;-76
2022/08/16 00:35:38;;;;;;;9.73;4.10;;;22.30;99.90;;;;;;5048225;28;20191;-77
2022/08/16 00:38:06;;;;;;;7.70;4.43;;;22.30;99.90;;;;;;5063072;28;20220;-77
2022/08/16 00:40:47;;;;;;;7.60;4.23;;;22.30;99.90;;;;;;5078397;28;20194;-77
2022/08/16 00:43:28;;;;;;;9.23;3.97;;;22.20;99.90;;;;;;5063864;28;20214;-77
2022/08/16 00:46:17;;;;;;;8.32;4.18;;;22.20;99.90;;;;;;5064701;28;20187;-77
2022/08/16 00:48:44;;;;;;;8.23;4.10;;;22.20;99.90;;;;;;5080184;28;20194;-77
2022/08/16 00:51:14;;;;;;;6.23;4.10;;;22.20;99.90;;;;;;5062007;28;20222;-77
2022/08/16 00:53:42;;;;;;;5.93;4.07;;;22.20;99.90;;;;;;5074331;28;20233;-76
2022/08/16 00:56:15;;;;;;;9.43;4.40;;;22.20;99.90;;;;;;5078915;28;20958;-77
2022/08/16 00:58:46;;;;;;;5.50;4.00;;;22.20;99.90;;;;;;5074482;28;20219;-77
2022/08/16 01:01:14;;;;;;;10.27;4.20;;;22.20;99.90;;;;;;5064366;28;20294;-77
2022/08/16 01:03:47;;;;;;;8.00;4.20;;;22.20;99.90;;;;;;5066169;28;20191;-77
2022/08/16 01:06:17;;;;;;;7.00;3.95;;;22.20;99.90;;;;;;5054746;28;20190;-77
2022/08/16 01:08:47;;;;;;;9.73;3.97;;;22.20;99.90;;;;;;5063842;28;20187;-77
2022/08/16 01:11:14;;;;;;;9.40;4.40;;;22.20;99.90;;;;;;5066622;28;20197;-77
2022/08/16 01:13:43;;;;;;;7.17;4.07;;;22.20;99.90;;;;;;5062434;28;20207;-77
2022/08/16 01:16:25;;;;;;;8.33;3.90;;;22.20;99.90;;;;;;5065283;28;20673;-77
2022/08/16 01:19:22;;;;;;;8.53;4.23;;;22.20;99.90;;;;;;5059918;28;20214;-76
2022/08/16 01:22:03;;;;;;;10.38;4.40;;;22.20;99.90;;;;;;5064908;28;20183;-77
2022/08/16 01:25:12;;;;;;;9.37;4.27;;;22.20;99.90;;;;;;5065186;28;20228;-77
2022/08/16 01:27:55;;;;;;;9.43;4.32;;;22.20;99.90;;;;;;5074906;28;20202;-77
2022/08/16 01:30:31;;;;;;;7.57;4.20;;;22.20;99.90;;;;;;5064264;28;20865;-76
2022/08/16 01:33:01;;;;;;;8.40;4.33;;;22.20;99.90;;;;;;5080855;28;20198;-77
2022/08/16 01:35:36;;;;;;;6.93;3.97;;;22.20;99.90;;;;;;5061097;28;20201;-77
2022/08/16 01:38:33;;;;;;;8.47;4.30;;;22.20;99.90;;;;;;5054354;28;20220;-77
2022/08/16 01:41:15;;;;;;;8.07;4.10;;;22.20;99.90;;;;;;5065132;28;20194;-77
2022/08/16 01:43:45;;;;;;;9.17;4.20;;;22.20;99.90;;;;;;5060197;28;20667;-76
2022/08/16 01:46:38;;;;;;;8.17;4.23;;;22.20;99.90;;;;;;5066676;28;20206;-77
2022/08/16 01:49:27;;;;;;;6.85;4.22;;;22.20;99.90;;;;;;5064931;28;20652;-77
2022/08/16 01:52:02;;;;;;;6.83;3.90;;;22.20;99.90;;;;;;5060140;28;20645;-77
2022/08/16 01:54:29;;;;;;;6.40;3.87;;;22.20;99.90;;;;;;5075562;28;20202;-77
2022/08/16 01:56:58;;;;;;;8.70;4.20;;;22.10;99.90;;;;;;5079653;28;20593;-77
2022/08/16 01:59:26;;;;;;;6.63;3.90;;;22.10;99.90;;;;;;5081487;28;20222;-77
2022/08/16 02:01:53;;;;;;;6.90;4.30;;;22.10;99.90;;;;;;5068418;28;20576;-77
2022/08/16 02:04:22;;;;;;;7.53;4.13;;;22.10;99.90;;;;;;5068091;28;20206;-77
2022/08/16 02:06:50;;;;;;;7.17;3.70;;;22.10;99.90;;;;;;5065984;28;20202;-77
2022/08/16 02:09:20;;;;;;;7.60;4.47;;;22.10;99.90;;;;;;5084404;28;20202;-77
2022/08/16 02:11:55;;;;;;;5.63;3.60;;;22.10;99.90;;;;;;5084476;28;20293;-76
2022/08/16 02:14:27;;;;;;;7.53;3.93;;;22.10;99.90;;;;;;5069764;28;20807;-77
2022/08/16 02:17:04;;;;;;;7.13;4.13;;;22.00;99.90;;;;;;5067345;28;20526;-77
2022/08/16 02:19:34;;;;;;;8.90;4.03;;;22.00;99.90;;;;;;5067420;28;20194;-76
2022/08/16 02:22:03;;;;;;;8.37;4.07;;;22.00;99.90;;;;;;5043466;28;20812;-77
2022/08/16 02:24:30;;;;;;;8.10;4.22;;;22.00;99.90;;;;;;5062982;28;20199;-76
2022/08/16 02:26:56;;;;;;;7.60;4.37;;;21.90;99.90;;;;;;5083888;28;20659;-77
2022/08/16 02:29:25;;;;;;;8.13;3.87;;;21.90;99.90;;;;;;5067063;28;20187;-77
2022/08/16 02:31:51;;;;;;;10.27;4.03;;;21.90;99.90;;;;;;5069571;28;20222;-77
2022/08/16 02:34:26;;;;;;;8.70;4.13;;;21.90;99.90;;;;;;5064249;28;20195;-76
2022/08/16 02:36:52;;;;;;;7.67;3.83;;;21.90;99.90;;;;;;5068734;28;20194;-77
2022/08/16 02:39:20;;;;;;;8.37;3.97;;;21.90;99.90;;;;;;5068173;28;20254;-77
2022/08/16 02:41:50;;;;;;;11.97;4.17;;;21.90;99.90;;;;;;5060945;28;20236;-77
2022/08/16 02:44:16;;;;;;;11.40;4.40;;;21.90;99.90;;;;;;5084352;28;20191;-77
2022/08/16 02:46:46;;;;;;;6.87;4.00;;;21.90;99.90;;;;;;5083840;28;20194;-77
2022/08/16 02:49:12;;;;;;;6.03;4.00;;;21.90;99.90;;;;;;5066223;28;20191;-77
2022/08/16 02:51:41;;;;;;;6.40;3.93;;;21.90;99.90;;;;;;5065179;28;20720;-77
2022/08/16 02:54:09;;;;;;;8.57;4.13;;;21.80;99.90;;;;;;5049416;28;20252;-77
2022/08/16 02:56:35;;;;;;;7.90;4.23;;;21.80;99.90;;;;;;5065483;28;20285;-77
2022/08/16 02:59:03;;;;;;;9.93;4.17;;;21.80;99.90;;;;;;5081214;28;20242;-77
2022/08/16 03:01:32;;;;;;;10.37;4.13;;;21.90;99.90;;;;;;5067697;28;20190;-77
2022/08/16 03:04:02;;;;;;;7.73;4.03;;;21.90;99.90;;;;;;5067394;28;20199;-77
2022/08/16 03:06:29;;;;;;;6.60;4.07;;;21.90;99.90;;;;;;5068372;28;20179;-77
2022/08/16 03:08:56;;;;;;;10.33;4.30;;;21.90;99.90;;;;;;5066874;28;20659;-77
2022/08/16 03:11:22;;;;;;;8.50;4.25;;;21.90;99.90;;;;;;5067906;28;20191;-77
2022/08/16 03:13:53;;;;;;;6.70;4.03;;;21.90;99.90;;;;;;5084305;28;20182;-77
2022/08/16 03:16:23;;;;;;;9.13;4.27;;;21.90;99.90;;;;;;5051492;28;20291;-77
2022/08/16 03:18:49;;;;;;;5.73;4.10;;;21.90;99.90;;;;;;5050543;28;20265;-76
2022/08/16 03:21:16;;;;;;;10.30;4.20;;;21.90;99.90;;;;;;5067328;28;20682;-77
2022/08/16 03:23:43;;;;;;;11.47;4.40;;;21.90;99.90;;;;;;5064638;28;20245;-77
2022/08/16 03:26:10;;;;;;;10.50;4.57;;;21.90;99.90;;;;;;5067972;28;20186;-77
2022/08/16 03:28:36;;;;;;;8.73;4.33;;;21.90;99.90;;;;;;5069412;28;20191;-77
2022/08/16 03:31:03;;;;;;;11.63;4.50;;;21.80;99.90;;;;;;5068450;28;20190;-77
2022/08/16 03:33:29;;;;;;;7.70;4.30;;;21.80;99.90;;;;;;5066590;28;20195;-77
2022/08/16 03:35:59;;;;;;;9.33;3.93;;;21.90;99.90;;;;;;5064148;28;20198;-77
2022/08/16 03:38:29;;;;;;;11.23;4.77;;;21.80;99.90;;;;;;5067226;28;20953;-77
2022/08/16 03:40:56;;;;;;;9.97;4.93;;;21.80;99.90;;;;;;5076846;28;20277;-77
2022/08/16 03:43:23;;;;;;;7.07;4.33;;;21.80;99.90;;;;;;5067326;28;20645;-77
2022/08/16 03:45:52;;;;;;;13.17;4.90;;;21.90;99.90;;;;;;5065578;28;20186;-77
2022/08/16 03:48:20;;;;;;;8.10;4.27;;;21.90;99.90;;;;;;5067120;28;20255;-77
2022/08/16 03:50:46;;;;;;;7.70;4.13;;;21.90;99.90;;;;;;5083074;28;20233;-77
2022/08/16 03:53:12;;;;;;;8.20;4.43;;;21.90;99.90;;;;;;5067898;28;20197;-77
2022/08/16 03:55:42;;;;;;;6.03;4.30;;;21.90;99.90;;;;;;5069258;28;20182;-77
2022/08/16 03:58:08;;;;;;;7.57;3.93;;;21.90;99.90;;;;;;5067728;28;20293;-77
2022/08/16 04:00:35;;;;;;;5.90;4.00;;;21.90;99.90;;;;;;5061063;28;20182;-77
2022/08/16 04:03:08;;;;;;;6.60;4.30;;;21.90;99.90;;;;;;5072000;28;20241;-77
2022/08/16 04:05:42;;;;;;;7.87;3.90;;;21.90;99.90;;;;;;5083388;28;20198;-77
2022/08/16 04:08:08;;;;;;;7.67;4.17;;;21.90;99.90;;;;;;5067121;28;20225;-77
2022/08/16 04:10:36;;;;;;;8.77;4.17;;;21.90;99.90;;;;;;5048798;28;20186;-77
2022/08/16 04:13:02;;;;;;;5.53;4.13;;;21.90;99.90;;;;;;5066653;28;20187;-77
2022/08/16 04:15:29;;;;;;;7.37;4.43;;;21.90;99.90;;;;;;5059185;28;20234;-77
2022/08/16 04:17:57;;;;;;;8.40;4.40;;;21.90;99.90;;;;;;5068303;28;20214;-77
2022/08/16 04:20:24;;;;;;;6.93;4.30;;;21.90;99.90;;;;;;5066528;28;20185;-77
2022/08/16 04:22:52;;;;;;;8.80;4.13;;;22.00;99.90;;;;;;5033278;28;20186;-77
2022/08/16 04:25:19;;;;;;;9.53;4.77;;;21.90;99.90;;;;;;5066561;28;20175;-77
2022/08/16 04:27:45;;;;;;;10.13;4.53;;;22.00;99.90;;;;;;5066904;28;20202;-77
2022/08/16 04:30:16;;;;;;;7.37;4.30;;;21.90;99.90;;;;;;5065372;28;20195;-77
2022/08/16 04:32:44;;;;;;;8.80;5.13;;;21.90;99.90;;;;;;5047718;28;20640;-76
2022/08/16 04:35:17;;;;;;;7.10;4.37;;;21.90;99.90;;;;;;5067416;28;20182;-77
2022/08/16 04:37:46;;;;;;;6.60;4.20;;;21.90;99.90;;;;;;5059101;28;20226;-77
2022/08/16 04:40:14;;;;;;;7.50;4.33;;;21.90;99.90;;;;;;5068411;28;20353;-77
2022/08/16 04:42:41;;;;;;;10.30;4.80;;;21.90;99.90;;;;;;5078419;28;20190;-77
2022/08/16 04:45:12;;;;;;;6.87;4.27;;;21.90;99.90;;;;;;5065689;28;20198;-76
2022/08/16 04:47:40;;;;;;;7.40;4.23;;;22.00;99.90;;;;;;5049467;28;20187;-77
2022/08/16 04:50:13;;;;;;;8.18;4.55;;;22.00;99.90;;;;;;5066605;28;20296;-77
2022/08/16 04:52:39;;;;;;;7.30;4.70;;;22.10;99.90;;;;;;5067131;28;20191;-77
2022/08/16 04:55:13;;;;;;;11.90;5.20;;;22.10;99.90;;;;;;5083388;28;20190;-77
2022/08/16 04:57:41;;;;;;;8.37;4.90;;;22.20;99.90;;;;;;5065168;28;20203;-77
2022/08/16 05:00:25;;;;;;;10.27;4.78;;;22.20;99.90;;;;;;5065855;28;20269;-77
2022/08/16 05:02:55;;;;;;;9.50;4.63;;;22.30;99.90;;;;;;5062654;28;20187;-77
2022/08/16 05:05:22;;;;;;;10.77;5.20;;;22.30;99.90;;;;;;5066475;28;20186;-77
2022/08/16 05:07:48;;;;;;;8.52;4.82;;;22.40;99.90;;;;;;5065835;28;20205;-77
2022/08/16 05:10:15;;;;;;;13.90;5.97;;;22.50;99.90;;;;;;5081985;28;20194;-77
2022/08/16 05:12:42;;;;;;;11.10;5.10;;;22.50;99.90;;;;;;5063987;28;20964;-77
2022/08/16 05:15:13;;;;;;;16.77;5.40;;;22.60;99.90;;;;;;5047438;28;20211;-77
2022/08/16 05:17:40;;;;;;;8.80;4.90;;;22.60;99.90;;;;;;5058420;28;20995;-77
2022/08/16 05:20:09;;;;;;;8.45;4.72;;;22.70;99.90;;;;;;5066546;28;20178;-77
2022/08/16 05:22:38;;;;;;;9.73;5.30;;;22.70;99.90;;;;;;5066274;28;20182;-77
2022/08/16 05:25:07;;;;;;;8.38;4.90;;;22.70;99.90;;;;;;5062609;28;20196;-77
2022/08/16 05:27:35;;;;;;;9.57;4.88;;;22.80;99.90;;;;;;5064312;28;20191;-77
2022/08/16 05:30:03;;;;;;;8.30;4.80;;;22.80;99.90;;;;;;5073589;28;20223;-77
2022/08/16 05:32:29;;;;;;;10.90;5.10;;;22.90;99.90;;;;;;5047476;28;20244;-76
2022/08/16 05:34:55;;;;;;;13.30;5.90;;;22.90;99.90;;;;;;5065976;28;20648;-77
2022/08/16 05:37:23;;;;;;;7.80;4.65;;;22.90;99.90;;;;;;5062309;28;20217;-77
2022/08/16 05:39:53;;;;;;;8.27;5.03;;;23.00;99.90;;;;;;5066180;28;20182;-77
2022/08/16 05:42:20;;;;;;;10.50;5.30;;;23.00;99.90;;;;;;5064161;28;20187;-76
2022/08/16 05:44:47;;;;;;;8.25;4.85;;;23.10;99.90;;;;;;5049908;28;20175;-77
2022/08/16 05:47:14;;;;;;;8.95;4.40;;;23.10;99.90;;;;;;5064571;28;20193;-77
2022/08/16 05:49:40;;;;;;;12.57;5.03;;;23.20;99.90;;;;;;5064973;28;20221;-77
2022/08/16 05:52:09;;;;;;;9.80;4.78;;;23.20;99.90;;;;;;5063847;28;20184;-77
2022/08/16 05:54:39;;;;;;;6.50;4.65;;;23.30;99.90;;;;;;5062532;28;20183;-77
2022/08/16 05:57:05;;;;;;;16.20;4.90;;;23.30;99.90;;;;;;5062585;28;20183;-77
2022/08/16 05:59:36;;;;;;;7.88;4.70;;;23.40;99.90;;;;;;5064990;28;20249;-77
2022/08/16 06:02:05;;;;;;;8.88;4.38;;;23.40;99.90;;;;;;5059475;28;20206;-77
2022/08/16 06:04:33;;;;;;;8.15;4.57;;;23.50;99.90;;;;;;5074562;28;20230;-77
2022/08/16 06:06:59;;;;;;;8.40;4.57;;;23.50;99.90;;;;;;5066929;28;20186;-77
2022/08/16 06:09:26;;;;;;;8.80;4.70;;;23.60;99.90;;;;;;5081778;28;20217;-77
2022/08/16 06:11:52;;;;;;;7.60;4.78;;;23.60;99.90;;;;;;5062629;28;20187;-77
2022/08/16 06:14:22;;;;;;;7.78;4.45;;;23.70;99.90;;;;;;5076829;28;20196;-77
2022/08/16 06:16:52;;;;;;;6.45;4.18;;;23.70;99.90;;;;;;5060662;28;20759;-77
2022/08/16 06:19:21;;;;;;;7.45;4.15;;;23.80;99.90;;;;;;5044308;28;20222;-77
2022/08/16 06:21:59;;;;;;;7.18;4.20;;;23.90;99.90;;;;;;5065369;28;20186;-77
2022/08/16 06:24:28;;;;;;;6.65;3.72;;;23.90;99.90;;;;;;5065454;28;20282;-77
2022/08/16 06:26:56;;;;;;;6.30;3.72;;;24.00;99.90;;;;;;5065753;28;20179;-77
2022/08/16 06:29:30;;;;;;;6.28;4.30;;;24.10;99.90;;;;;;5067413;28;20190;-77
2022/08/16 06:31:57;;;;;;;9.73;3.50;;;24.10;99.90;;;;;;5086066;28;20536;-77
2022/08/16 06:34:23;;;;;;;7.28;3.97;;;24.20;99.90;;;;;;5068476;28;20195;-76
2022/08/16 06:36:53;;;;;;;8.18;3.70;;;24.30;99.90;;;;;;5084064;28;20213;-77
2022/08/16 06:39:30;;;;;;;9.13;3.78;;;24.40;99.90;;;;;;5085788;28;20579;-77
2022/08/16 06:41:57;;;;;;;6.55;4.00;;;24.50;99.90;;;;;;5053968;28;20202;-77
2022/08/16 06:44:24;;;;;;;6.55;3.47;;;24.70;99.90;;;;;;5086436;28;20187;-77
2022/08/16 06:46:53;;;;;;;5.40;3.42;;;24.80;99.90;;;;;;5066173;28;20553;-77
2022/08/16 06:49:19;;;;;;;8.82;3.60;;;24.90;99.90;;;;;;5066403;28;20588;-77
2022/08/16 06:51:46;;;;;;;9.43;3.83;;;25.00;99.90;;;;;;5080077;28;20194;-77
2022/08/16 06:54:12;;;;;;;5.68;3.80;;;25.20;99.90;;;;;;5069856;28;20683;-77
2022/08/16 06:56:41;;;;;;;6.60;3.88;;;25.20;99.90;;;;;;5065833;28;20201;-77
2022/08/16 06:59:08;;;;;;;6.30;3.58;;;25.20;99.90;;;;;;5033510;28;20698;-77
2022/08/16 07:01:35;;;;;;;7.03;3.83;;;25.20;99.90;;;;;;5045812;28;20183;-78
2022/08/16 07:04:04;;;;;;;5.90;3.40;;;25.30;99.90;;;;;;5053218;28;20295;-77
2022/08/16 07:06:31;;;;;;;6.90;3.17;;;25.30;99.90;;;;;;5053605;28;20179;-77
2022/08/16 07:09:00;;;;;;;5.93;3.42;;;25.40;99.90;;;;;;5049812;28;20215;-77
2022/08/16 07:11:26;;;;;;;7.53;3.40;;;25.60;99.90;;;;;;5067710;28;20652;-77
2022/08/16 07:13:55;;;;;;;7.22;3.70;;;25.80;99.90;;;;;;5052711;28;20191;-75
2022/08/16 07:16:22;;;;;;;5.88;3.35;;;25.80;99.90;;;;;;5070057;28;20647;-75
2022/08/16 07:18:49;;;;;;;4.57;3.45;;;25.80;99.90;;;;;;5053027;28;20376;-74
2022/08/16 07:21:15;;;;;;;8.32;3.70;;;25.80;99.90;;;;;;5065666;28;20645;-75
2022/08/16 07:23:45;;;;;;;6.15;3.58;;;25.80;99.90;;;;;;5051807;28;20270;-75
2022/08/16 07:26:22;;;;;;;6.72;3.88;;;25.90;99.90;;;;;;5087006;28;20839;-75
2022/08/16 07:28:49;;;;;;;6.40;3.25;;;26.00;99.90;;;;;;5066687;28;20244;-76
2022/08/16 07:31:19;;;;;;;5.22;3.45;;;26.10;99.90;;;;;;5053118;28;20270;-75
2022/08/16 07:33:45;;;;;;;5.15;2.90;;;26.20;99.90;;;;;;5084683;28;20601;-76
2022/08/16 07:36:16;;;;;;;5.88;3.10;;;26.10;99.90;;;;;;5052131;28;20201;-76
2022/08/16 07:38:43;;;;;;;5.75;3.05;;;26.20;99.90;;;;;;5068947;28;20218;-75
2022/08/16 07:41:10;;;;;;;3.58;2.50;;;26.40;99.90;;;;;;5069420;28;20508;-76
2022/08/16 07:43:36;;;;;;;4.70;2.88;;;26.50;99.90;;;;;;5086345;28;20194;-76
2022/08/16 07:46:03;;;;;;;6.07;3.25;;;26.60;99.90;;;;;;5061584;28;20194;-76
2022/08/16 07:49:13;;;;;;;7.72;3.65;;;26.80;99.90;;;;;;5069697;28;20643;-76
2022/08/16 07:51:40;;;;;;;9.52;3.08;;;26.90;99.90;;;;;;5070939;28;20186;-76
2022/08/16 07:54:09;;;;;;;8.10;3.78;;;27.10;99.90;;;;;;5069423;28;20194;-76
2022/08/16 07:56:35;;;;;;;9.90;3.40;;;27.10;99.90;;;;;;5069922;28;20250;-76
2022/08/16 07:59:03;;;;;;;9.15;3.75;;;27.20;99.90;;;;;;5086056;28;20211;-76
2022/08/16 08:01:30;;;;;;;8.85;3.45;;;27.30;99.90;;;;;;5052452;28;20258;-76
2022/08/16 08:04:01;;;;;;;7.45;3.67;;;27.30;99.90;;;;;;5084586;28;20290;-77
2022/08/16 08:06:31;;;;;;;6.25;3.53;;;27.30;99.90;;;;;;5049604;28;20273;-76
2022/08/16 08:08:59;;;;;;;9.80;3.53;;;27.30;99.90;;;;;;5050916;28;20229;-76
2022/08/16 08:11:30;;;;;;;6.00;3.45;;;27.30;99.90;;;;;;5064977;28;20328;-76
2022/08/16 08:14:00;;;;;;;6.63;3.40;;;27.40;99.90;;;;;;5064734;28;20187;-76
2022/08/16 08:16:28;;;;;;;8.82;3.72;;;27.40;99.90;;;;;;5072357;28;20214;-76
2022/08/16 08:18:55;;;;;;;6.28;3.10;;;27.50;99.90;;;;;;5085854;28;20202;-76
2022/08/16 08:21:24;;;;;;;7.72;3.22;;;27.60;99.90;;;;;;5068838;28;20178;-76
2022/08/16 08:23:51;;;;;;;6.53;3.53;;;27.70;99.90;;;;;;5067109;28;20228;-76
2022/08/16 08:26:19;;;;;;;12.00;3.70;;;27.80;99.90;;;;;;5065965;28;20651;-76
2022/08/16 08:28:46;;;;;;;7.88;3.63;;;27.80;99.90;;;;;;5067883;28;20202;-76
2022/08/16 08:31:13;;;;;;;5.35;3.13;;;27.90;99.90;;;;;;5062849;28;20191;-76
2022/08/16 08:33:39;;;;;;;5.88;3.03;;;27.90;99.90;;;;;;5083680;28;20232;-76
2022/08/16 08:36:13;;;;;;;10.23;3.33;;;28.00;99.90;;;;;;5068771;28;20297;-76
2022/08/16 08:38:40;;;;;;;9.45;3.97;;;28.00;99.90;;;;;;5068255;28;20740;-76
2022/08/16 08:41:07;;;;;;;7.70;3.42;;;28.00;99.90;;;;;;5067424;28;20183;-76
2022/08/16 08:43:37;;;;;;;8.07;3.25;;;28.00;99.90;;;;;;5068438;28;20287;-76
2022/08/16 08:46:06;;;;;;;7.40;3.28;;;28.10;99.90;;;;;;5051281;28;20222;-77
2022/08/16 08:48:32;;;;;;;5.15;3.20;;;28.20;99.90;;;;;;5068051;28;20187;-76
2022/08/16 08:50:59;;;;;;;5.63;3.10;;;28.30;99.90;;;;;;5083678;28;20294;-76
2022/08/16 08:53:25;;;;;;;9.18;3.28;;;28.40;99.90;;;;;;5068597;28;20216;-76
2022/08/16 08:55:52;;;;;;;7.07;3.05;;;28.60;99.90;;;;;;5081587;28;20182;-76
2022/08/16 08:58:19;;;;;;;7.32;3.00;;;28.60;99.90;;;;;;5068103;28;20203;-76
2022/08/16 09:00:45;;;;;;;7.35;3.15;;;28.50;99.90;;;;;;5085394;28;20183;-76
2022/08/16 09:03:13;;;;;;;6.82;3.40;;;28.60;99.90;;;;;;5081877;28;20696;-76
2022/08/16 09:05:45;;;;;;;5.90;2.97;;;28.70;99.90;;;;;;5062318;28;20179;-76
2022/08/16 09:08:11;;;;;;;6.22;3.20;;;28.70;99.90;;;;;;5063943;28;20187;-76
2022/08/16 09:10:38;;;;;;;6.90;3.15;;;28.80;99.90;;;;;;5084815;28;20187;-77
2022/08/16 09:13:08;;;;;;;4.80;2.90;;;28.80;99.90;;;;;;5062759;28;20649;-76
2022/08/16 09:15:35;;;;;;;9.20;3.45;;;28.80;99.90;;;;;;5067027;28;20202;-76
2022/08/16 09:18:03;;;;;;;8.98;2.95;;;28.90;99.90;;;;;;5065191;28;20210;-76
2022/08/16 09:20:30;;;;;;;4.90;3.25;;;28.90;99.90;;;;;;5057990;28;20632;-77
2022/08/16 09:23:02;;;;;;;9.00;3.25;;;29.00;99.90;;;;;;5067919;28;20286;-76
2022/08/16 09:25:29;;;;;;;7.65;3.80;;;28.90;99.90;;;;;;5069374;28;20182;-76
2022/08/16 09:27:55;;;;;;;7.90;3.05;;;28.80;99.90;;;;;;5080149;28;20220;-76
2022/08/16 09:30:22;;;;;;;6.72;3.13;;;28.80;99.90;;;;;;5082087;28;20282;-76
2022/08/16 09:32:49;;;;;;;5.00;2.90;;;29.00;99.90;;;;;;5049752;28;20241;-76
2022/08/16 09:35:16;;;;;;;7.85;3.40;;;29.00;99.90;;;;;;5065715;28;20190;-76
2022/08/16 09:37:44;;;;;;;5.68;3.17;;;29.20;99.90;;;;;;5063654;28;20209;-76
2022/08/16 09:40:19;;;;;;;7.47;3.22;;;29.10;99.90;;;;;;5075219;28;20193;-76
2022/08/16 09:42:54;;;;;;;5.40;3.05;;;29.20;99.90;;;;;;5063668;28;20225;-76
2022/08/16 09:45:21;;;;;;;4.38;2.72;;;29.30;99.90;;;;;;5067057;28;20186;-76
2022/08/16 09:47:53;;;;;;;4.85;2.90;;;29.40;99.90;;;;;;5067438;28;20278;-76
2022/08/16 09:50:25;;;;;;;6.15;3.22;;;29.40;99.90;;;;;;5066024;28;20197;-76
2022/08/16 09:52:52;;;;;;;8.63;3.30;;;29.40;99.90;;;;;;5065479;28;20924;-76
2022/08/16 09:55:19;;;;;;;6.82;2.90;;;29.50;99.90;;;;;;5065186;28;20218;-76
2022/08/16 09:57:45;;;;;;;5.68;2.92;;;29.50;99.90;;;;;;5065441;28;20215;-76
2022/08/16 10:00:12;;;;;;;4.03;2.90;;;29.60;99.90;;;;;;5065530;28;20190;-77
2022/08/16 10:02:42;;;;;;;5.05;2.80;;;29.70;99.90;;;;;;5064005;28;20529;-77
2022/08/16 10:05:58;;;;;;;8.43;2.85;;;29.80;99.90;;;;;;5089095;28;20202;-77
2022/08/16 10:08:25;;;;;;;6.32;2.67;;;29.80;99.90;;;;;;5069593;28;20239;-77
2022/08/16 10:13:43;;;;;;;6.57;3.08;;;29.80;99.90;;;;;;5072428;28;20182;-77
2022/08/16 10:16:12;;;;;;;5.60;3.03;;;29.90;99.90;;;;;;5089410;28;20179;-77
2022/08/16 10:18:42;;;;;;;5.93;2.97;;;29.80;99.90;;;;;;5086649;28;20241;-77
2022/08/16 10:21:09;;;;;;;6.60;2.70;;;30.00;99.90;;;;;;5071040;28;20197;-77
2022/08/16 10:23:36;;;;;;;7.50;2.80;;;30.00;99.90;;;;;;5089046;28;20269;-77
2022/08/16 10:26:05;;;;;;;7.45;3.20;;;30.00;99.90;;;;;;5074029;28;20190;-77
2022/08/16 10:28:36;;;;;;;3.97;3.10;;;29.90;99.90;;;;;;5067570;28;20201;-77
2022/08/16 10:31:05;;;;;;;9.15;3.47;;;30.10;99.90;;;;;;5067543;28;20217;-76
2022/08/16 10:33:35;;;;;;;9.45;3.50;;;30.10;99.90;;;;;;5066658;28;20186;-76
2022/08/16 10:36:06;;;;;;;7.15;3.17;;;29.90;99.90;;;;;;5070327;28;20186;-76
2022/08/16 10:38:36;;;;;;;7.22;3.20;;;29.80;99.90;;;;;;5068259;28;20215;-77
2022/08/16 10:41:06;;;;;;;11.25;3.50;;;29.90;99.90;;;;;;5049377;28;20195;-76
2022/08/16 10:43:34;;;;;;;6.25;2.80;;;29.80;99.90;;;;;;5062477;28;20341;-77
2022/08/16 10:46:02;;;;;;;6.00;2.90;;;29.90;99.90;;;;;;5065152;28;20194;-77
2022/08/16 10:48:30;;;;;;;4.75;2.90;;;29.80;99.90;;;;;;5066401;28;20195;-76
2022/08/16 10:51:00;;;;;;;7.50;3.05;;;29.90;99.90;;;;;;5052369;28;20190;-76
2022/08/16 10:53:30;;;;;;;8.75;2.95;;;30.00;99.90;;;;;;5068967;28;20601;-77
2022/08/16 10:55:58;;;;;;;5.20;2.88;;;30.10;99.90;;;;;;5053001;28;20194;-77
2022/08/16 10:58:27;;;;;;;5.43;3.05;;;29.90;99.90;;;;;;5083114;28;20219;-77
2022/08/16 11:00:53;;;;;;;6.70;2.97;;;30.00;99.90;;;;;;5063068;28;20190;-77
2022/08/16 11:03:20;;;;;;;7.63;3.30;;;29.80;99.90;;;;;;5067126;28;20195;-77
2022/08/16 11:05:49;;;;;;;6.28;2.72;;;29.70;99.90;;;;;;5073067;28;20186;-76
2022/08/16 11:08:16;;;;;;;4.88;3.03;;;29.70;99.90;;;;;;5071060;28;20198;-76
2022/08/16 11:10:48;;;;;;;5.75;2.85;;;29.50;99.90;;;;;;5052927;28;20183;-77
2022/08/16 11:13:24;;;;;;;5.57;3.15;;;29.60;99.90;;;;;;5087274;28;20190;-77
2022/08/16 11:15:54;;;;;;;5.85;3.08;;;29.70;99.90;;;;;;5041411;28;20220;-78
2022/08/16 11:18:21;;;;;;;4.25;2.63;;;29.60;99.90;;;;;;5079613;28;20691;-77
2022/08/16 11:20:48;;;;;;;4.72;2.80;;;29.70;99.90;;;;;;5066972;28;20545;-77
2022/08/16 11:23:14;;;;;;;4.82;3.05;;;29.70;99.90;;;;;;5050709;28;20187;-77
2022/08/16 11:25:44;;;;;;;4.03;2.78;;;29.80;99.90;;;;;;5064000;28;20221;-77
2022/08/16 11:28:13;;;;;;;6.97;3.00;;;29.70;99.90;;;;;;5063304;28;20605;-75
2022/08/16 11:30:40;;;;;;;9.40;3.30;;;29.70;99.90;;;;;;5060239;28;20191;-76
2022/08/16 11:33:08;;;;;;;6.00;3.03;;;29.70;99.90;;;;;;5049178;28;20306;-77
2022/08/16 11:35:36;;;;;;;4.35;2.70;;;29.80;99.90;;;;;;5076440;28;20186;-76
2022/08/16 11:38:13;;;;;;;8.85;3.05;;;29.70;99.90;;;;;;5068270;28;20210;-77
2022/08/16 11:40:49;;;;;;;4.80;2.65;;;29.70;99.90;;;;;;5059263;28;20210;-77
2022/08/16 11:43:22;;;;;;;6.55;3.20;;;29.50;99.90;;;;;;5071416;28;20221;-77
2022/08/16 11:45:49;;;;;;;3.88;2.70;;;29.50;99.90;;;;;;5086735;28;20261;-77
2022/08/16 11:48:18;;;;;;;4.07;2.75;;;29.40;99.90;;;;;;5087527;28;20195;-77
2022/08/16 11:50:46;;;;;;;4.50;3.03;;;29.40;99.90;;;;;;5087480;28;20252;-77
2022/08/16 11:53:13;;;;;;;5.95;2.90;;;29.30;99.90;;;;;;5079497;28;20253;-77
2022/08/16 11:55:42;;;;;;;6.38;2.85;;;29.20;99.90;;;;;;5033077;28;20233;-77
2022/08/16 11:58:09;;;;;;;6.55;3.08;;;29.40;99.90;;;;;;5049897;28;20262;-77
2022/08/16 12:00:41;;;;;;;10.05;3.13;;;29.40;99.90;;;;;;5033140;28;20194;-77
2022/08/16 12:03:09;;;;;;;6.75;3.00;;;29.40;99.90;;;;;;5064770;28;20183;-77
2022/08/16 12:05:39;;;;;;;6.57;2.83;;;29.70;99.90;;;;;;5070619;28;20179;-77
2022/08/16 12:08:10;;;;;;;6.32;2.90;;;29.40;99.90;;;;;;5087123;28;20265;-77
2022/08/16 12:10:40;;;;;;;6.20;2.78;;;29.40;99.90;;;;;;5084313;28;20245;-77
2022/08/16 12:13:09;;;;;;;10.27;3.13;;;29.50;99.90;;;;;;5061536;28;20191;-77
2022/08/16 12:15:37;;;;;;;6.65;3.25;;;29.40;99.90;;;;;;5051435;28;20182;-77
2022/08/16 12:18:05;;;;;;;6.15;2.72;;;29.20;99.90;;;;;;5071421;28;20676;-77
2022/08/16 12:20:38;;;;;;;7.15;3.05;;;29.20;99.90;;;;;;5066660;28;20174;-77
2022/08/16 12:23:10;;;;;;;8.45;3.17;;;29.40;99.90;;;;;;5080242;28;20202;-77
2022/08/16 12:25:38;;;;;;;6.00;3.08;;;29.50;99.90;;;;;;5074626;28;20190;-77
2022/08/16 12:28:07;;;;;;;8.68;3.17;;;29.40;99.90;;;;;;5066773;28;20221;-75
2022/08/16 12:30:42;;;;;;;5.43;2.83;;;29.40;99.90;;;;;;5084587;28;20187;-76
2022/08/16 12:33:16;;;;;;;5.75;3.10;;;29.40;99.90;;;;;;5067500;28;20536;-77
2022/08/16 12:35:47;;;;;;;6.85;2.83;;;29.30;99.90;;;;;;5065227;28;20183;-76
2022/08/16 12:38:15;;;;;;;4.90;2.67;;;29.30;99.90;;;;;;5077929;28;20218;-76
2022/08/16 12:40:48;;;;;;;6.72;2.60;;;29.30;99.90;;;;;;5054234;28;20711;-77
2022/08/16 12:43:21;;;;;;;5.63;2.97;;;29.20;99.90;;;;;;5051980;28;20208;-77
2022/08/16 12:45:53;;;;;;;7.22;2.97;;;29.30;99.90;;;;;;5078351;28;20600;-77
2022/08/16 12:51:16;;;;;;;7.03;2.60;;;29.30;99.90;;;;;;5048623;28;20871;-76
2022/08/16 12:53:45;;;;;;;4.65;2.95;;;29.20;99.90;;;;;;5048543;28;20193;-76
2022/08/16 12:56:12;;;;;;;5.28;2.95;;;29.30;99.90;;;;;;5049629;28;20179;-76
2022/08/16 12:58:40;;;;;;;4.78;2.92;;;29.30;99.90;;;;;;5049997;28;20203;-76
2022/08/16 13:01:08;;;;;;;6.53;2.92;;;29.30;99.90;;;;;;5050508;28;20193;-77
2022/08/16 13:03:37;;;;;;;5.72;2.75;;;29.20;99.90;;;;;;5064892;28;20206;-76